createdAt,value
2018-03-26T00:00:30.443Z,3.1
2018-03-26T00:01:20.779Z,3.1
2018-03-26T00:02:10.954Z,3.1
2018-03-26T00:03:01.201Z,3.1
2018-03-26T00:03:50.956Z,3.1
2018-03-26T00:04:41.041Z,3.1
2018-03-26T00:05:31.091Z,3.1
2018-03-26T00:06:20.846Z,3.1
2018-03-26T00:07:11.464Z,3.1
2018-03-26T00:08:00.946Z,3.1
2018-03-26T00:08:51.119Z,3.1
2018-03-26T00:09:41.638Z,3.1
2018-03-26T00:10:31.422Z,3.1
2018-03-26T00:11:21.766Z,3.1
2018-03-26T00:12:11.809Z,3.1
2018-03-26T00:13:01.012Z,3.1
2018-03-26T00:13:51.928Z,3.1
2018-03-26T00:14:42.001Z,3.1
2018-03-26T00:15:31.763Z,3.1
2018-03-26T00:16:21.421Z,3.1
2018-03-26T00:17:11.861Z,3.1
2018-03-26T00:18:01.354Z,3.1
2018-03-26T00:18:52.030Z,3.1
2018-03-26T00:19:42.050Z,3.1
2018-03-26T00:20:31.823Z,3.1
2018-03-26T00:21:21.959Z,3.1
2018-03-26T00:22:12.499Z,3.1
2018-03-26T00:23:01.688Z,3.1
2018-03-26T00:23:52.138Z,3.1
2018-03-26T00:24:41.980Z,3.2
2018-03-26T00:25:32.045Z,3.1
2018-03-26T00:26:22.485Z,3.2
2018-03-26T00:27:12.030Z,3.1
2018-03-26T00:28:02.321Z,3.1
2018-03-26T00:28:52.378Z,3.1
2018-03-26T00:29:42.439Z,3.1
2018-03-26T00:30:33.060Z,3.1
2018-03-26T00:31:22.948Z,3.1
2018-03-26T00:32:12.905Z,3.1
2018-03-26T00:33:02.453Z,3.1
2018-03-26T00:33:53.312Z,3.1
2018-03-26T00:34:42.486Z,3.1
2018-03-26T00:35:32.934Z,3.1
2018-03-26T00:36:23.192Z,3.1
2018-03-26T00:37:13.248Z,3
2018-03-26T00:38:03.300Z,3
2018-03-26T00:38:53.650Z,3
2018-03-26T00:39:43.730Z,3
2018-03-26T00:40:33.183Z,3
2018-03-26T00:41:23.035Z,3
2018-03-26T00:42:13.282Z,3
2018-03-26T00:43:03.445Z,2.9
2018-03-26T00:43:53.413Z,2.9
2018-03-26T00:44:43.559Z,2.9
2018-03-26T00:45:33.802Z,2.9
2018-03-26T00:46:23.869Z,2.9
2018-03-26T00:47:14.195Z,2.9
2018-03-26T00:48:04.245Z,2.9
2018-03-26T00:48:54.298Z,2.9
2018-03-26T00:49:44.364Z,2.9
2018-03-26T00:50:34.439Z,2.9
2018-03-26T00:51:24.485Z,2.9
2018-03-26T00:52:14.551Z,2.8
2018-03-26T00:53:04.604Z,2.8
2018-03-26T00:53:54.643Z,2.8
2018-03-26T00:54:44.422Z,2.8
2018-03-26T00:55:34.477Z,2.8
2018-03-26T00:56:24.816Z,2.8
2018-03-26T00:57:14.590Z,2.8
2018-03-26T00:58:04.691Z,2.8
2018-03-26T00:58:54.984Z,2.8
2018-03-26T00:59:44.754Z,2.8
2018-03-26T01:00:34.837Z,2.8
2018-03-26T01:01:25.151Z,2.8
2018-03-26T01:02:15.209Z,2.8
2018-03-26T01:03:04.997Z,2.7
2018-03-26T01:03:55.046Z,2.7
2018-03-26T01:04:45.381Z,2.7
2018-03-26T01:05:35.181Z,2.7
2018-03-26T01:06:25.500Z,2.7
2018-03-26T01:07:15.592Z,2.7
2018-03-26T01:08:05.356Z,2.7
2018-03-26T01:08:55.402Z,2.7
2018-03-26T01:09:45.744Z,2.7
2018-03-26T01:10:35.784Z,2.6
2018-03-26T01:11:25.846Z,2.6
2018-03-26T01:12:15.626Z,2.6
2018-03-26T01:13:05.992Z,2.6
2018-03-26T01:13:56.006Z,2.6
2018-03-26T01:14:46.061Z,2.6
2018-03-26T01:15:35.553Z,2.6
2018-03-26T01:16:26.186Z,2.6
2018-03-26T01:17:16.253Z,2.6
2018-03-26T01:18:05.422Z,2.6
2018-03-26T01:18:55.802Z,2.6
2018-03-26T01:19:45.833Z,2.6
2018-03-26T01:20:35.910Z,2.6
2018-03-26T01:21:26.558Z,2.6
2018-03-26T01:22:16.313Z,2.6
2018-03-26T01:23:06.663Z,2.6
2018-03-26T01:23:56.226Z,2.6
2018-03-26T01:24:46.495Z,2.6
2018-03-26T01:25:36.559Z,2.6
2018-03-26T01:26:26.594Z,2.6
2018-03-26T01:27:16.078Z,2.5
2018-03-26T01:28:06.708Z,2.5
2018-03-26T01:28:56.279Z,2.5
2018-03-26T01:29:46.331Z,2.5
2018-03-26T01:30:36.881Z,2.5
2018-03-26T01:31:26.539Z,2.5
2018-03-26T01:32:16.703Z,2.5
2018-03-26T01:33:07.057Z,2.5
2018-03-26T01:33:56.710Z,2.5
2018-03-26T01:34:46.590Z,2.5
2018-03-26T01:35:37.210Z,2.5
2018-03-26T01:36:26.975Z,2.5
2018-03-26T01:37:17.317Z,2.5
2018-03-26T01:38:07.102Z,2.5
2018-03-26T01:38:56.841Z,2.5
2018-03-26T01:39:47.775Z,2.4
2018-03-26T01:40:37.360Z,2.4
2018-03-26T01:41:27.919Z,2.5
2018-03-26T01:42:17.690Z,2.4
2018-03-26T01:43:07.445Z,2.4
2018-03-26T01:43:57.792Z,2.4
2018-03-26T01:44:47.268Z,2.4
2018-03-26T01:45:37.626Z,2.4
2018-03-26T01:46:27.474Z,2.4
2018-03-26T01:47:18.357Z,2.4
2018-03-26T01:48:07.807Z,2.4
2018-03-26T01:48:58.139Z,2.4
2018-03-26T01:49:47.703Z,2.4
2018-03-26T01:50:37.662Z,2.4
2018-03-26T01:51:27.807Z,2.4
2018-03-26T01:52:18.653Z,2.4
2018-03-26T01:53:07.931Z,2.4
2018-03-26T01:53:58.772Z,2.4
2018-03-26T01:54:48.241Z,2.4
2018-03-26T01:55:38.382Z,2.4
2018-03-26T01:56:28.750Z,2.4
2018-03-26T01:57:18.423Z,2.4
2018-03-26T01:58:08.774Z,2.4
2018-03-26T01:58:58.439Z,2.4
2018-03-26T01:59:48.864Z,2.4
2018-03-26T02:00:38.635Z,2.4
2018-03-26T02:01:28.967Z,2.4
2018-03-26T02:02:19.038Z,2.4
2018-03-26T02:03:09.193Z,2.4
2018-03-26T02:03:58.859Z,2.4
2018-03-26T02:04:49.121Z,2.4
2018-03-26T02:05:38.988Z,2.4
2018-03-26T02:06:29.220Z,2.4
2018-03-26T02:07:18.895Z,2.4
2018-03-26T02:08:09.152Z,2.4
2018-03-26T02:08:59.217Z,2.4
2018-03-26T02:09:49.363Z,2.4
2018-03-26T02:10:39.908Z,2.4
2018-03-26T02:11:29.688Z,2.4
2018-03-26T02:12:19.540Z,2.4
2018-03-26T02:13:09.495Z,2.4
2018-03-26T02:13:59.850Z,2.4
2018-03-26T02:14:49.665Z,2.4
2018-03-26T02:15:39.956Z,2.4
2018-03-26T02:16:29.421Z,2.4
2018-03-26T02:17:19.784Z,2.4
2018-03-26T02:18:09.833Z,2.4
2018-03-26T02:18:59.975Z,2.4
2018-03-26T02:19:49.558Z,2.4
2018-03-26T02:20:40.012Z,2.4
2018-03-26T02:21:30.349Z,2.4
2018-03-26T02:22:19.619Z,2.4
2018-03-26T02:23:09.989Z,2.4
2018-03-26T02:24:00.034Z,2.4
2018-03-26T02:24:49.899Z,2.4
2018-03-26T02:25:40.239Z,2.4
2018-03-26T02:26:30.481Z,2.4
2018-03-26T02:27:20.349Z,2.4
2018-03-26T02:28:10.315Z,2.4
2018-03-26T02:29:00.382Z,2.4
2018-03-26T02:29:50.522Z,2.4
2018-03-26T02:30:40.489Z,2.4
2018-03-26T02:31:30.850Z,2.4
2018-03-26T02:32:20.897Z,2.4
2018-03-26T02:33:10.376Z,2.4
2018-03-26T02:34:00.526Z,2.4
2018-03-26T02:34:51.260Z,2.4
2018-03-26T02:35:40.833Z,2.4
2018-03-26T02:36:31.389Z,2.4
2018-03-26T02:37:20.652Z,2.4
2018-03-26T02:38:11.791Z,2.4
2018-03-26T02:39:01.364Z,2.4
2018-03-26T02:39:51.621Z,2.4
2018-03-26T02:40:41.192Z,2.4
2018-03-26T02:41:30.914Z,2.4
2018-03-26T02:42:21.278Z,2.4
2018-03-26T02:43:11.836Z,2.4
2018-03-26T02:44:01.889Z,2.4
2018-03-26T02:44:51.554Z,2.4
2018-03-26T02:45:41.722Z,2.4
2018-03-26T02:46:32.059Z,2.4
2018-03-26T02:47:22.118Z,2.4
2018-03-26T02:48:12.459Z,2.4
2018-03-26T02:49:01.932Z,2.4
2018-03-26T02:49:52.006Z,2.4
2018-03-26T02:50:42.449Z,2.4
2018-03-26T02:51:32.420Z,2.4
2018-03-26T02:52:22.189Z,2.4
2018-03-26T02:53:12.514Z,2.4
2018-03-26T02:54:02.581Z,2.4
2018-03-26T02:54:52.620Z,2.4
2018-03-26T02:55:42.798Z,2.4
2018-03-26T02:56:32.502Z,2.4
2018-03-26T02:57:22.612Z,2.4
2018-03-26T02:58:12.583Z,2.4
2018-03-26T02:59:02.962Z,2.4
2018-03-26T02:59:52.784Z,2.4
2018-03-26T03:00:43.333Z,2.4
2018-03-26T03:01:32.507Z,2.4
2018-03-26T03:02:23.437Z,2.4
2018-03-26T03:03:13.476Z,2.4
2018-03-26T03:04:03.554Z,2.4
2018-03-26T03:04:53.582Z,2.4
2018-03-26T03:05:43.687Z,2.4
2018-03-26T03:06:32.563Z,2.4
2018-03-26T03:07:23.487Z,2.4
2018-03-26T03:08:13.539Z,2.4
2018-03-26T03:09:03.884Z,2.4
2018-03-26T03:09:53.650Z,2.4
2018-03-26T03:10:43.987Z,2.4
2018-03-26T03:11:33.748Z,2.4
2018-03-26T03:12:24.100Z,2.4
2018-03-26T03:13:14.204Z,2.4
2018-03-26T03:14:04.219Z,2.4
2018-03-26T03:14:53.990Z,2.5
2018-03-26T03:15:44.329Z,2.5
2018-03-26T03:16:33.819Z,2.5
2018-03-26T03:17:24.433Z,2.5
2018-03-26T03:18:14.506Z,2.5
2018-03-26T03:19:04.072Z,2.5
2018-03-26T03:19:54.314Z,2.5
2018-03-26T03:20:44.659Z,2.5
2018-03-26T03:21:34.724Z,2.6
2018-03-26T03:22:24.778Z,2.5
2018-03-26T03:23:14.849Z,2.5
2018-03-26T03:24:04.611Z,2.6
2018-03-26T03:24:54.671Z,2.6
2018-03-26T03:25:45.122Z,2.6
2018-03-26T03:26:35.097Z,2.6
2018-03-26T03:27:24.561Z,2.6
2018-03-26T03:28:14.897Z,2.6
2018-03-26T03:29:04.765Z,2.6
2018-03-26T03:29:55.011Z,2.6
2018-03-26T03:30:44.803Z,2.6
2018-03-26T03:31:35.141Z,2.6
2018-03-26T03:32:24.607Z,2.6
2018-03-26T03:33:15.541Z,2.6
2018-03-26T03:34:05.111Z,2.6
2018-03-26T03:34:55.646Z,2.6
2018-03-26T03:35:45.702Z,2.6
2018-03-26T03:36:35.208Z,2.6
2018-03-26T03:37:25.610Z,2.6
2018-03-26T03:38:15.309Z,2.6
2018-03-26T03:39:05.357Z,2.6
2018-03-26T03:39:55.725Z,2.6
2018-03-26T03:40:45.566Z,2.6
2018-03-26T03:41:35.829Z,2.6
2018-03-26T03:42:25.678Z,2.6
2018-03-26T03:43:15.635Z,2.6
2018-03-26T03:44:05.699Z,2.6
2018-03-26T03:44:56.043Z,2.6
2018-03-26T03:45:45.321Z,2.6
2018-03-26T03:46:35.462Z,2.6
2018-03-26T03:47:26.004Z,2.6
2018-03-26T03:48:16.273Z,2.6
2018-03-26T03:49:06.427Z,2.6
2018-03-26T03:49:56.663Z,2.6
2018-03-26T03:50:46.733Z,2.6
2018-03-26T03:51:35.923Z,2.6
2018-03-26T03:52:26.836Z,2.6
2018-03-26T03:53:16.908Z,2.7
2018-03-26T03:54:06.461Z,2.7
2018-03-26T03:54:57.012Z,2.6
2018-03-26T03:55:46.787Z,2.6
2018-03-26T03:56:36.727Z,2.6
2018-03-26T03:57:26.887Z,2.6
2018-03-26T03:58:16.655Z,2.6
2018-03-26T03:59:06.763Z,2.6
2018-03-26T03:59:56.581Z,2.6
2018-03-26T04:00:46.647Z,2.6
2018-03-26T04:01:36.491Z,2.6
2018-03-26T04:02:26.737Z,2.6
2018-03-26T04:03:17.311Z,2.6
2018-03-26T04:04:07.054Z,2.6
2018-03-26T04:04:57.403Z,2.6
2018-03-26T04:05:47.449Z,2.7
2018-03-26T04:06:37.203Z,2.6
2018-03-26T04:07:27.076Z,2.7
2018-03-26T04:08:17.621Z,2.7
2018-03-26T04:09:07.388Z,2.6
2018-03-26T04:09:57.736Z,2.6
2018-03-26T04:10:47.105Z,2.6
2018-03-26T04:11:37.561Z,2.6
2018-03-26T04:12:27.950Z,2.6
2018-03-26T04:13:17.971Z,2.6
2018-03-26T04:14:07.627Z,2.6
2018-03-26T04:14:58.358Z,2.6
2018-03-26T04:15:48.159Z,2.6
2018-03-26T04:16:37.716Z,2.6
2018-03-26T04:17:27.860Z,2.6
2018-03-26T04:18:18.579Z,2.6
2018-03-26T04:19:08.674Z,2.6
2018-03-26T04:19:58.705Z,2.6
2018-03-26T04:20:48.483Z,2.6
2018-03-26T04:21:38.849Z,2.6
2018-03-26T04:22:28.895Z,2.6
2018-03-26T04:23:18.352Z,2.6
2018-03-26T04:24:08.796Z,2.6
2018-03-26T04:24:58.771Z,2.7
2018-03-26T04:25:48.950Z,2.7
2018-03-26T04:26:39.158Z,2.7
2018-03-26T04:27:28.926Z,2.7
2018-03-26T04:28:18.780Z,2.7
2018-03-26T04:29:08.857Z,2.7
2018-03-26T04:29:58.416Z,2.7
2018-03-26T04:30:48.972Z,2.7
2018-03-26T04:31:38.513Z,2.7
2018-03-26T04:32:29.287Z,2.7
2018-03-26T04:33:19.348Z,2.7
2018-03-26T04:34:09.178Z,2.7
2018-03-26T04:34:59.455Z,2.7
2018-03-26T04:35:49.206Z,2.7
2018-03-26T04:36:39.550Z,2.7
2018-03-26T04:37:29.719Z,2.7
2018-03-26T04:38:19.673Z,2.7
2018-03-26T04:39:09.721Z,2.7
2018-03-26T04:39:59.601Z,2.7
2018-03-26T04:40:49.878Z,2.7
2018-03-26T04:41:39.442Z,2.7
2018-03-26T04:42:29.669Z,2.7
2018-03-26T04:43:20.016Z,2.8
2018-03-26T04:44:09.488Z,2.8
2018-03-26T04:44:59.548Z,2.8
2018-03-26T04:45:50.179Z,2.8
2018-03-26T04:46:39.943Z,2.8
2018-03-26T04:47:30.590Z,2.8
2018-03-26T04:48:20.333Z,2.8
2018-03-26T04:49:10.413Z,2.8
2018-03-26T04:50:00.180Z,2.8
2018-03-26T04:50:50.233Z,2.8
2018-03-26T04:51:40.286Z,2.8
2018-03-26T04:52:30.625Z,2.8
2018-03-26T04:53:20.482Z,2.9
2018-03-26T04:54:10.257Z,2.9
2018-03-26T04:55:01.107Z,2.9
2018-03-26T04:55:51.073Z,2.9
2018-03-26T04:56:40.620Z,2.9
2018-03-26T04:57:30.484Z,2.9
2018-03-26T04:58:20.737Z,2.9
2018-03-26T04:59:11.120Z,2.9
2018-03-26T05:00:01.147Z,2.9
2018-03-26T05:00:50.892Z,2.9
2018-03-26T05:01:41.557Z,2.9
2018-03-26T05:02:31.031Z,3
2018-03-26T05:03:21.374Z,3
2018-03-26T05:04:11.709Z,3
2018-03-26T05:05:01.479Z,3
2018-03-26T05:05:51.822Z,3.1
2018-03-26T05:06:41.597Z,3.1
2018-03-26T05:07:31.644Z,3.1
2018-03-26T05:08:21.423Z,3.1
2018-03-26T05:09:11.768Z,3.1
2018-03-26T05:10:01.333Z,3.1
2018-03-26T05:10:51.397Z,3.1
2018-03-26T05:11:41.745Z,3.1
2018-03-26T05:12:31.308Z,3.1
2018-03-26T05:13:22.147Z,3.1
2018-03-26T05:14:11.984Z,3.2
2018-03-26T05:15:02.178Z,3.2
2018-03-26T05:15:51.936Z,3.2
2018-03-26T05:16:41.984Z,3.2
2018-03-26T05:17:32.050Z,3.2
2018-03-26T20:17:45.508Z,4.9
2018-03-26T20:18:35.510Z,4.9
2018-03-26T20:19:25.587Z,4.9
2018-03-26T20:20:15.614Z,4.9
2018-03-26T20:21:05.111Z,4.9
2018-03-26T20:21:55.740Z,4.9
2018-03-26T20:22:45.791Z,4.9
2018-03-26T20:23:35.847Z,4.9
2018-03-26T20:24:25.956Z,4.9
2018-03-26T20:25:15.674Z,4.9
2018-03-26T20:26:06.081Z,4.9
2018-03-26T20:26:56.101Z,4.9
2018-03-26T20:27:46.138Z,4.9
2018-03-26T20:28:36.186Z,4.9
2018-03-26T20:29:26.253Z,4.9
2018-03-26T20:30:16.305Z,4.9
2018-03-26T20:31:05.688Z,4.9
2018-03-26T20:31:55.868Z,4.9
2018-03-26T20:32:46.243Z,4.9
2018-03-26T20:33:35.985Z,4.9
2018-03-26T20:34:26.031Z,4.9
2018-03-26T20:35:16.400Z,4.9
2018-03-26T20:36:06.446Z,4.9
2018-03-26T20:36:56.503Z,4.9
2018-03-26T20:37:46.552Z,4.9
2018-03-26T20:38:36.895Z,4.9
2018-03-26T20:39:26.961Z,4.9
2018-03-26T20:40:16.723Z,4.9
2018-03-26T20:41:07.074Z,4.9
2018-03-26T20:41:57.132Z,4.9
2018-03-26T20:42:47.175Z,4.9
2018-03-26T20:43:37.289Z,4.9
2018-03-26T20:44:27.274Z,4.9
2018-03-26T20:45:17.340Z,4.9
2018-03-26T20:46:07.408Z,4.9
2018-03-26T20:46:57.465Z,4.9
2018-03-26T20:47:47.255Z,4.9
2018-03-26T20:48:37.569Z,4.9
2018-03-26T20:49:27.638Z,4.9
2018-03-26T20:50:17.123Z,4.9
2018-03-26T20:51:07.476Z,4.9
2018-03-26T20:51:57.824Z,4.9
2018-03-26T20:52:47.924Z,4.9
2018-03-26T20:53:37.997Z,4.9
2018-03-26T20:54:27.969Z,4.8
2018-03-26T20:55:17.777Z,4.9
2018-03-26T20:56:08.117Z,4.9
2018-03-26T20:56:58.136Z,4.8
2018-03-26T20:57:48.204Z,4.8
2018-03-26T20:58:38.259Z,4.8
2018-03-26T20:59:28.322Z,4.8
2018-03-26T21:00:18.388Z,4.8
2018-03-26T21:01:08.156Z,4.8
2018-03-26T21:01:58.496Z,4.8
2018-03-26T21:02:48.268Z,4.8
2018-03-26T21:03:38.606Z,4.8
2018-03-26T21:04:28.694Z,4.8
2018-03-26T21:05:18.728Z,4.8
2018-03-26T21:06:08.969Z,4.8
2018-03-26T21:06:58.854Z,4.8
2018-03-26T21:07:48.942Z,4.8
2018-03-26T21:08:38.994Z,4.8
2018-03-26T21:09:29.031Z,4.8
2018-03-26T21:10:18.799Z,4.8
2018-03-26T21:11:09.121Z,4.8
2018-03-26T21:11:59.188Z,4.8
2018-03-26T21:12:49.256Z,4.8
2018-03-26T21:13:39.311Z,4.8
2018-03-26T21:14:29.379Z,4.8
2018-03-26T21:15:19.415Z,4.8
2018-03-26T21:16:09.197Z,4.8
2018-03-26T21:16:59.544Z,4.8
2018-03-26T21:17:49.306Z,4.8
2018-03-26T21:18:39.094Z,4.8
2018-03-26T21:19:29.759Z,4.8
2018-03-26T21:20:19.490Z,4.8
2018-03-26T21:21:09.816Z,4.8
2018-03-26T21:21:59.604Z,4.8
2018-03-26T21:22:49.925Z,4.8
2018-03-26T21:23:39.728Z,4.8
2018-03-26T21:24:30.157Z,4.8
2018-03-26T21:25:20.115Z,4.8
2018-03-26T21:26:09.880Z,4.8
2018-03-26T21:26:59.942Z,4.8
2018-03-26T21:27:49.996Z,4.8
2018-03-26T21:28:40.356Z,4.8
2018-03-26T21:29:30.394Z,4.8
2018-03-26T21:30:20.168Z,4.8
2018-03-26T21:31:10.510Z,4.8
2018-03-26T21:32:00.555Z,4.8
2018-03-26T21:32:50.612Z,4.8
2018-03-26T21:33:40.691Z,4.8
2018-03-26T21:34:30.790Z,4.8
2018-03-26T21:35:20.787Z,4.8
2018-03-26T21:36:10.285Z,4.8
2018-03-26T21:37:00.902Z,4.8
2018-03-26T21:37:50.972Z,4.8
2018-03-26T21:38:41.028Z,4.8
2018-03-26T21:39:31.072Z,4.8
2018-03-26T21:40:20.860Z,4.8
2018-03-26T21:41:10.640Z,4.8
2018-03-26T21:42:01.282Z,4.8
2018-03-26T21:42:51.120Z,4.8
2018-03-26T21:43:40.825Z,4.8
2018-03-26T21:44:30.854Z,4.8
2018-03-26T21:45:21.209Z,4.8
2018-03-26T21:46:10.983Z,4.8
2018-03-26T21:47:01.497Z,4.8
2018-03-26T21:47:51.397Z,4.8
2018-03-26T21:48:41.454Z,4.7
2018-03-26T21:49:31.214Z,4.8
2018-03-26T21:50:21.272Z,4.8
2018-03-26T21:51:11.612Z,4.8
2018-03-26T21:52:01.685Z,4.8
2018-03-26T21:52:51.829Z,4.8
2018-03-26T21:53:41.591Z,4.8
2018-03-26T21:54:31.841Z,4.7
2018-03-26T21:55:21.691Z,4.8
2018-03-26T21:56:11.409Z,4.8
2018-03-26T21:57:02.294Z,4.7
2018-03-26T21:57:51.779Z,4.7
2018-03-26T21:58:41.936Z,4.7
2018-03-26T21:59:32.176Z,4.7
2018-03-26T22:00:21.953Z,4.7
2018-03-26T22:01:11.821Z,4.7
2018-03-26T22:02:02.366Z,4.7
2018-03-26T22:02:52.131Z,4.7
2018-03-26T22:03:42.286Z,4.6
2018-03-26T22:04:32.049Z,4.7
2018-03-26T22:05:22.911Z,4.6
2018-03-26T22:06:12.758Z,4.7
2018-03-26T22:07:02.224Z,4.6
2018-03-26T22:07:52.749Z,4.6
2018-03-26T22:08:42.803Z,4.6
2018-03-26T22:09:32.924Z,4.6
2018-03-26T22:10:22.354Z,4.6
2018-03-26T22:11:12.433Z,4.6
2018-03-26T22:12:03.148Z,4.6
2018-03-26T22:12:53.101Z,4.6
2018-03-26T22:13:42.689Z,4.6
2018-03-26T22:14:32.925Z,4.6
2018-03-26T22:15:22.996Z,4.6
2018-03-26T22:16:13.136Z,4.6
2018-03-26T22:17:03.241Z,4.6
2018-03-26T22:17:53.454Z,4.6
2018-03-26T22:18:43.223Z,4.6
2018-03-26T22:19:33.669Z,4.6
2018-03-26T22:20:23.623Z,4.6
2018-03-26T22:21:13.762Z,4.6
2018-03-26T22:22:03.461Z,4.6
2018-03-26T22:22:53.498Z,4.6
2018-03-26T22:23:43.862Z,4.6
2018-03-26T22:24:33.921Z,4.6
2018-03-26T22:25:23.683Z,4.6
2018-03-26T22:26:14.137Z,4.6
2018-03-26T22:27:04.088Z,4.6
2018-03-26T22:27:53.866Z,4.6
2018-03-26T22:28:43.889Z,4.6
2018-03-26T22:29:34.272Z,4.6
2018-03-26T22:30:24.127Z,4.5
2018-03-26T22:31:13.974Z,4.6
2018-03-26T22:32:04.447Z,4.5
2018-03-26T22:32:53.993Z,4.6
2018-03-26T22:33:44.147Z,4.5
2018-03-26T22:34:34.002Z,4.5
2018-03-26T22:35:24.384Z,4.5
2018-03-26T22:36:14.139Z,4.5
2018-03-26T22:37:04.375Z,4.5
2018-03-26T22:37:54.647Z,4.5
2018-03-26T22:38:44.299Z,4.5
2018-03-26T22:39:34.654Z,4.5
2018-03-26T22:40:24.796Z,4.5
2018-03-26T22:41:14.787Z,4.5
2018-03-26T22:42:05.424Z,4.5
2018-03-26T22:42:55.207Z,4.5
2018-03-26T22:43:45.232Z,4.5
2018-03-26T22:44:35.104Z,4.5
2018-03-26T22:45:25.234Z,4.5
2018-03-26T22:46:15.301Z,4.5
2018-03-26T22:47:05.601Z,4.5
2018-03-26T22:47:55.237Z,4.5
2018-03-26T22:48:45.896Z,4.4
2018-03-26T22:49:35.938Z,4.5
2018-03-26T22:50:25.411Z,4.5
2018-03-26T22:51:15.750Z,4.5
2018-03-26T22:52:05.819Z,4.5
2018-03-26T22:52:55.873Z,4.4
2018-03-26T22:53:45.808Z,4.4
2018-03-26T22:54:35.687Z,4.5
2018-03-26T22:55:25.544Z,4.5
2018-03-26T22:56:16.381Z,4.4
2018-03-26T22:57:05.875Z,4.5
2018-03-26T22:57:56.509Z,4.4
2018-03-26T22:58:46.290Z,4.5
2018-03-26T22:59:36.623Z,4.5
2018-03-26T23:00:26.659Z,4.5
2018-03-26T23:01:15.956Z,4.5
2018-03-26T23:02:06.214Z,4.4
2018-03-26T23:02:56.268Z,4.4
2018-03-26T23:03:46.891Z,4.4
2018-03-26T23:04:36.778Z,4.5
2018-03-26T23:05:26.544Z,4.5
2018-03-26T23:06:16.805Z,4.4
2018-03-26T23:07:06.839Z,4.4
2018-03-26T23:07:56.510Z,4.4
2018-03-26T23:08:46.954Z,4.4
2018-03-26T23:09:36.724Z,4.4
2018-03-26T23:10:27.389Z,4.4
2018-03-26T23:11:16.736Z,4.4
2018-03-26T23:12:07.082Z,4.4
2018-03-26T23:12:57.111Z,4.4
2018-03-26T23:13:47.312Z,4.4
2018-03-26T23:14:37.356Z,4.4
2018-03-26T23:15:27.714Z,4.4
2018-03-26T23:16:16.991Z,4.4
2018-03-26T23:17:07.552Z,4.4
2018-03-26T23:17:57.601Z,4.4
2018-03-26T23:18:47.648Z,4.4
2018-03-26T23:19:37.726Z,4.4
2018-03-26T23:20:27.572Z,4.4
2018-03-26T23:21:17.824Z,4.4
2018-03-26T23:22:07.602Z,4.4
2018-03-26T23:22:57.946Z,4.4
2018-03-26T23:23:47.997Z,4.4
2018-03-26T23:24:37.850Z,4.4
2018-03-26T23:25:27.836Z,4.4
2018-03-26T23:26:18.185Z,4.4
2018-03-26T23:27:08.239Z,4.4
2018-03-26T23:27:57.996Z,4.4
2018-03-26T23:28:47.764Z,4.4
2018-03-26T23:29:38.410Z,4.4
2018-03-26T23:30:28.176Z,4.4
2018-03-26T23:31:17.944Z,4.4
2018-03-26T23:32:08.276Z,4.4
2018-03-26T23:32:58.961Z,4.4
2018-03-26T23:33:48.459Z,4.4
2018-03-26T23:34:39.028Z,4.4
2018-03-26T23:35:28.516Z,4.4
2018-03-26T23:36:19.056Z,4.4
2018-03-26T23:37:08.944Z,4.4
2018-03-26T23:37:58.482Z,4.4
2018-03-26T23:38:48.499Z,4.4
2018-03-26T23:39:39.103Z,4.4
2018-03-26T23:40:28.881Z,4.4
2018-03-26T23:41:18.713Z,4.4
2018-03-26T23:42:09.276Z,4.4
2018-03-26T23:42:59.038Z,4.4
2018-03-26T23:43:48.912Z,4.4
2018-03-26T23:44:39.436Z,4.4
2018-03-26T23:45:29.210Z,4.4
2018-03-26T23:46:19.069Z,4.4
2018-03-26T23:47:09.923Z,4.4
2018-03-26T23:47:59.183Z,4.4
2018-03-26T23:48:49.727Z,4.4
2018-03-26T23:49:39.781Z,4.4
2018-03-26T23:50:29.851Z,4.4
2018-03-26T23:51:19.902Z,4.4
2018-03-26T23:52:09.753Z,4.4
2018-03-26T23:52:59.525Z,4.4
2018-03-26T23:53:49.890Z,4.4
2018-03-26T23:54:39.947Z,4.4
2018-03-26T23:55:29.881Z,4.4
2018-03-26T23:56:20.047Z,4.4
2018-03-26T23:57:10.322Z,4.4
2018-03-26T23:58:00.081Z,4.4
2018-03-26T23:58:50.437Z,4.4
2018-03-26T23:59:40.279Z,4.4
